sensor_id;sensor_type;location;lat;lon;timestamp;P1;durP1;ratioP1;P2;durP2;ratioP2
73747;SDS011;62056;52.130;5.428;2022-09-09T00:03:43;29.70;;;21.67;;
73747;SDS011;62056;52.130;5.428;2022-09-09T00:06:16;6.57;;;5.88;;
73747;SDS011;62056;52.130;5.428;2022-09-09T00:08:51;8.63;;;7.82;;
73747;SDS011;62056;52.130;5.428;2022-09-09T00:11:41;2.78;;;2.58;;
73747;SDS011;62056;52.130;5.428;2022-09-09T00:14:34;2.20;;;1.77;;
73747;SDS011;62056;52.130;5.428;2022-09-09T00:20:13;2.20;;;1.30;;
73747;SDS011;62056;52.130;5.428;2022-09-09T00:22:50;3.08;;;1.42;;
73747;SDS011;62056;52.130;5.428;2022-09-09T00:25:29;0.98;;;0.75;;
73747;SDS011;62056;52.130;5.428;2022-09-09T00:28:07;2.60;;;1.10;;
73747;SDS011;62056;52.130;5.428;2022-09-09T00:30:44;2.88;;;0.90;;
73747;SDS011;62056;52.130;5.428;2022-09-09T00:33:15;2.15;;;1.00;;
73747;SDS011;62056;52.130;5.428;2022-09-09T00:36:02;1.80;;;1.45;;
73747;SDS011;62056;52.130;5.428;2022-09-09T00:38:33;1.67;;;1.10;;
73747;SDS011;62056;52.130;5.428;2022-09-09T00:41:08;2.45;;;1.00;;
73747;SDS011;62056;52.130;5.428;2022-09-09T00:43:41;2.83;;;1.15;;
73747;SDS011;62056;52.130;5.428;2022-09-09T00:55:07;4.00;;;2.75;;
73747;SDS011;62056;52.130;5.428;2022-09-09T00:57:53;3.63;;;1.95;;
73747;SDS011;62056;52.130;5.428;2022-09-09T01:03:02;2.42;;;1.73;;
73747;SDS011;62056;52.130;5.428;2022-09-09T01:05:54;5.28;;;4.80;;
73747;SDS011;62056;52.130;5.428;2022-09-09T01:08:28;4.97;;;4.57;;
73747;SDS011;62056;52.130;5.428;2022-09-09T01:11:15;3.85;;;3.08;;
73747;SDS011;62056;52.130;5.428;2022-09-09T01:13:49;4.50;;;4.10;;
73747;SDS011;62056;52.130;5.428;2022-09-09T01:16:22;3.60;;;3.00;;
73747;SDS011;62056;52.130;5.428;2022-09-09T01:18:50;5.18;;;4.78;;
73747;SDS011;62056;52.130;5.428;2022-09-09T01:21:26;7.45;;;6.57;;
73747;SDS011;62056;52.130;5.428;2022-09-09T01:26:37;6.90;;;6.32;;
73747;SDS011;62056;52.130;5.428;2022-09-09T01:29:10;9.15;;;8.00;;
73747;SDS011;62056;52.130;5.428;2022-09-09T01:31:40;6.38;;;5.78;;
73747;SDS011;62056;52.130;5.428;2022-09-09T01:34:27;17.20;;;14.95;;
73747;SDS011;62056;52.130;5.428;2022-09-09T01:37:07;17.30;;;14.35;;
73747;SDS011;62056;52.130;5.428;2022-09-09T01:39:37;4.72;;;4.18;;
73747;SDS011;62056;52.130;5.428;2022-09-09T01:42:09;4.57;;;4.18;;
73747;SDS011;62056;52.130;5.428;2022-09-09T01:44:38;4.93;;;3.50;;
73747;SDS011;62056;52.130;5.428;2022-09-09T01:47:05;4.18;;;3.22;;
73747;SDS011;62056;52.130;5.428;2022-09-09T01:49:33;4.43;;;2.63;;
73747;SDS011;62056;52.130;5.428;2022-09-09T01:52:00;3.50;;;2.47;;
73747;SDS011;62056;52.130;5.428;2022-09-09T01:54:28;2.70;;;2.50;;
73747;SDS011;62056;52.130;5.428;2022-09-09T01:57:05;3.17;;;2.40;;
73747;SDS011;62056;52.130;5.428;2022-09-09T01:59:47;2.90;;;2.00;;
73747;SDS011;62056;52.130;5.428;2022-09-09T02:05:08;2.80;;;2.40;;
73747;SDS011;62056;52.130;5.428;2022-09-09T02:07:50;3.75;;;2.35;;
73747;SDS011;62056;52.130;5.428;2022-09-09T02:10:37;4.70;;;2.13;;
73747;SDS011;62056;52.130;5.428;2022-09-09T02:13:44;2.53;;;2.05;;
73747;SDS011;62056;52.130;5.428;2022-09-09T02:18:57;3.28;;;2.10;;
73747;SDS011;62056;52.130;5.428;2022-09-09T02:21:34;4.20;;;2.03;;
73747;SDS011;62056;52.130;5.428;2022-09-09T02:24:04;2.50;;;2.30;;
73747;SDS011;62056;52.130;5.428;2022-09-09T02:26:37;2.13;;;1.90;;
73747;SDS011;62056;52.130;5.428;2022-09-09T02:29:12;4.32;;;2.15;;
73747;SDS011;62056;52.130;5.428;2022-09-09T02:31:42;4.72;;;2.33;;
73747;SDS011;62056;52.130;5.428;2022-09-09T02:34:13;4.90;;;3.42;;
73747;SDS011;62056;52.130;5.428;2022-09-09T02:36:41;6.43;;;3.30;;
73747;SDS011;62056;52.130;5.428;2022-09-09T02:39:10;3.65;;;2.42;;
73747;SDS011;62056;52.130;5.428;2022-09-09T02:41:38;3.25;;;1.90;;
73747;SDS011;62056;52.130;5.428;2022-09-09T02:44:10;6.65;;;3.78;;
73747;SDS011;62056;52.130;5.428;2022-09-09T02:46:46;3.00;;;1.85;;
73747;SDS011;62056;52.130;5.428;2022-09-09T02:49:30;2.70;;;2.50;;
73747;SDS011;62056;52.130;5.428;2022-09-09T02:52:07;3.13;;;2.80;;
73747;SDS011;62056;52.130;5.428;2022-09-09T02:54:41;2.80;;;2.60;;
73747;SDS011;62056;52.130;5.428;2022-09-09T02:57:16;6.90;;;6.28;;
73747;SDS011;62056;52.130;5.428;2022-09-09T02:59:46;4.10;;;3.70;;
73747;SDS011;62056;52.130;5.428;2022-09-09T03:02:13;3.80;;;2.60;;
73747;SDS011;62056;52.130;5.428;2022-09-09T03:04:41;6.07;;;4.47;;
73747;SDS011;62056;52.130;5.428;2022-09-09T03:07:11;4.80;;;4.30;;
73747;SDS011;62056;52.130;5.428;2022-09-09T03:09:38;3.15;;;2.67;;
73747;SDS011;62056;52.130;5.428;2022-09-09T03:12:04;3.10;;;2.88;;
73747;SDS011;62056;52.130;5.428;2022-09-09T03:14:32;5.60;;;2.75;;
73747;SDS011;62056;52.130;5.428;2022-09-09T03:16:59;2.90;;;2.10;;
73747;SDS011;62056;52.130;5.428;2022-09-09T03:19:27;7.32;;;2.80;;
73747;SDS011;62056;52.130;5.428;2022-09-09T03:21:53;2.50;;;2.20;;
73747;SDS011;62056;52.130;5.428;2022-09-09T03:24:22;2.83;;;2.55;;
73747;SDS011;62056;52.130;5.428;2022-09-09T03:26:48;5.47;;;2.63;;
73747;SDS011;62056;52.130;5.428;2022-09-09T03:29:16;3.25;;;2.33;;
73747;SDS011;62056;52.130;5.428;2022-09-09T03:31:46;3.13;;;2.47;;
73747;SDS011;62056;52.130;5.428;2022-09-09T03:34:13;3.85;;;2.70;;
73747;SDS011;62056;52.130;5.428;2022-09-09T03:36:39;5.53;;;2.47;;
73747;SDS011;62056;52.130;5.428;2022-09-09T03:39:07;4.40;;;3.97;;
73747;SDS011;62056;52.130;5.428;2022-09-09T03:41:33;3.50;;;2.67;;
73747;SDS011;62056;52.130;5.428;2022-09-09T03:44:00;3.40;;;3.00;;
73747;SDS011;62056;52.130;5.428;2022-09-09T03:46:26;3.80;;;2.20;;
73747;SDS011;62056;52.130;5.428;2022-09-09T03:48:53;4.78;;;2.65;;
73747;SDS011;62056;52.130;5.428;2022-09-09T03:51:20;2.43;;;2.23;;
73747;SDS011;62056;52.130;5.428;2022-09-09T03:53:48;3.08;;;2.88;;
73747;SDS011;62056;52.130;5.428;2022-09-09T03:56:15;5.60;;;2.80;;
73747;SDS011;62056;52.130;5.428;2022-09-09T03:58:41;5.28;;;2.60;;
73747;SDS011;62056;52.130;5.428;2022-09-09T04:01:09;3.78;;;3.17;;
73747;SDS011;62056;52.130;5.428;2022-09-09T04:03:40;2.97;;;2.77;;
73747;SDS011;62056;52.130;5.428;2022-09-09T04:06:07;3.80;;;3.03;;
73747;SDS011;62056;52.130;5.428;2022-09-09T04:08:35;3.72;;;3.38;;
73747;SDS011;62056;52.130;5.428;2022-09-09T04:11:03;3.78;;;2.65;;
73747;SDS011;62056;52.130;5.428;2022-09-09T04:13:33;3.88;;;2.63;;
73747;SDS011;62056;52.130;5.428;2022-09-09T04:16:01;7.27;;;3.17;;
73747;SDS011;62056;52.130;5.428;2022-09-09T04:18:30;3.45;;;3.13;;
73747;SDS011;62056;52.130;5.428;2022-09-09T04:20:57;4.75;;;2.78;;
73747;SDS011;62056;52.130;5.428;2022-09-09T04:23:25;7.18;;;2.67;;
73747;SDS011;62056;52.130;5.428;2022-09-09T04:25:55;4.13;;;3.28;;
73747;SDS011;62056;52.130;5.428;2022-09-09T04:28:23;3.72;;;3.22;;
73747;SDS011;62056;52.130;5.428;2022-09-09T04:30:52;4.05;;;2.50;;
73747;SDS011;62056;52.130;5.428;2022-09-09T04:33:18;3.33;;;2.10;;
73747;SDS011;62056;52.130;5.428;2022-09-09T04:35:46;2.78;;;2.03;;
73747;SDS011;62056;52.130;5.428;2022-09-09T04:38:15;3.05;;;2.40;;
73747;SDS011;62056;52.130;5.428;2022-09-09T04:40:46;6.73;;;2.60;;
73747;SDS011;62056;52.130;5.428;2022-09-09T04:43:13;2.83;;;2.63;;
73747;SDS011;62056;52.130;5.428;2022-09-09T04:45:43;6.20;;;2.40;;
73747;SDS011;62056;52.130;5.428;2022-09-09T04:48:12;4.53;;;2.20;;
73747;SDS011;62056;52.130;5.428;2022-09-09T04:50:40;3.25;;;2.50;;
73747;SDS011;62056;52.130;5.428;2022-09-09T04:53:07;2.63;;;2.10;;
73747;SDS011;62056;52.130;5.428;2022-09-09T04:55:35;3.65;;;2.30;;
73747;SDS011;62056;52.130;5.428;2022-09-09T04:58:05;4.07;;;2.17;;
73747;SDS011;62056;52.130;5.428;2022-09-09T05:00:34;3.97;;;2.22;;
73747;SDS011;62056;52.130;5.428;2022-09-09T05:03:02;2.47;;;2.28;;
73747;SDS011;62056;52.130;5.428;2022-09-09T05:05:30;4.80;;;2.63;;
73747;SDS011;62056;52.130;5.428;2022-09-09T05:08:03;4.35;;;1.65;;
73747;SDS011;62056;52.130;5.428;2022-09-09T05:10:31;5.70;;;2.03;;
73747;SDS011;62056;52.130;5.428;2022-09-09T05:12:58;2.58;;;2.03;;
73747;SDS011;62056;52.130;5.428;2022-09-09T05:15:25;5.57;;;2.38;;
73747;SDS011;62056;52.130;5.428;2022-09-09T05:17:51;5.53;;;2.33;;
73747;SDS011;62056;52.130;5.428;2022-09-09T05:20:19;2.40;;;1.80;;
73747;SDS011;62056;52.130;5.428;2022-09-09T05:22:46;2.28;;;1.90;;
73747;SDS011;62056;52.130;5.428;2022-09-09T05:25:13;4.15;;;2.58;;
73747;SDS011;62056;52.130;5.428;2022-09-09T05:27:42;5.13;;;2.20;;
73747;SDS011;62056;52.130;5.428;2022-09-09T05:30:09;7.43;;;2.37;;
73747;SDS011;62056;52.130;5.428;2022-09-09T05:32:36;2.33;;;1.92;;
73747;SDS011;62056;52.130;5.428;2022-09-09T05:35:03;6.10;;;2.30;;
73747;SDS011;62056;52.130;5.428;2022-09-09T05:37:30;8.93;;;2.55;;
73747;SDS011;62056;52.130;5.428;2022-09-09T05:39:57;3.55;;;2.58;;
73747;SDS011;62056;52.130;5.428;2022-09-09T05:42:24;2.57;;;2.03;;
73747;SDS011;62056;52.130;5.428;2022-09-09T05:44:51;5.97;;;2.40;;
73747;SDS011;62056;52.130;5.428;2022-09-09T05:47:20;5.47;;;2.53;;
73747;SDS011;62056;52.130;5.428;2022-09-09T05:49:47;4.13;;;2.05;;
73747;SDS011;62056;52.130;5.428;2022-09-09T05:52:14;5.18;;;1.92;;
73747;SDS011;62056;52.130;5.428;2022-09-09T05:54:40;3.87;;;2.23;;
73747;SDS011;62056;52.130;5.428;2022-09-09T05:57:08;3.75;;;2.50;;
73747;SDS011;62056;52.130;5.428;2022-09-09T05:59:35;5.88;;;2.65;;
73747;SDS011;62056;52.130;5.428;2022-09-09T06:02:02;5.82;;;3.20;;
73747;SDS011;62056;52.130;5.428;2022-09-09T06:04:29;8.32;;;2.30;;
73747;SDS011;62056;52.130;5.428;2022-09-09T06:06:56;3.33;;;2.20;;
73747;SDS011;62056;52.130;5.428;2022-09-09T06:09:23;5.72;;;3.65;;
73747;SDS011;62056;52.130;5.428;2022-09-09T06:11:49;5.07;;;2.28;;
73747;SDS011;62056;52.130;5.428;2022-09-09T06:14:16;4.60;;;2.10;;
73747;SDS011;62056;52.130;5.428;2022-09-09T06:16:44;3.78;;;2.00;;
73747;SDS011;62056;52.130;5.428;2022-09-09T06:19:11;4.17;;;2.43;;
73747;SDS011;62056;52.130;5.428;2022-09-09T06:21:39;2.70;;;2.25;;
73747;SDS011;62056;52.130;5.428;2022-09-09T06:24:06;4.30;;;1.83;;
73747;SDS011;62056;52.130;5.428;2022-09-09T06:26:38;4.00;;;1.80;;
73747;SDS011;62056;52.130;5.428;2022-09-09T06:29:07;3.25;;;1.70;;
73747;SDS011;62056;52.130;5.428;2022-09-09T06:31:35;4.17;;;1.67;;
73747;SDS011;62056;52.130;5.428;2022-09-09T06:34:06;5.55;;;1.58;;
73747;SDS011;62056;52.130;5.428;2022-09-09T06:36:35;4.18;;;1.83;;
73747;SDS011;62056;52.130;5.428;2022-09-09T06:39:04;4.68;;;1.60;;
73747;SDS011;62056;52.130;5.428;2022-09-09T06:41:37;5.45;;;2.28;;
73747;SDS011;62056;52.130;5.428;2022-09-09T06:44:07;3.23;;;1.37;;
73747;SDS011;62056;52.130;5.428;2022-09-09T06:46:35;6.45;;;1.88;;
73747;SDS011;62056;52.130;5.428;2022-09-09T06:49:02;5.15;;;1.88;;
73747;SDS011;62056;52.130;5.428;2022-09-09T06:51:31;3.55;;;1.30;;
73747;SDS011;62056;52.130;5.428;2022-09-09T06:54:01;3.97;;;1.40;;
73747;SDS011;62056;52.130;5.428;2022-09-09T06:56:29;6.97;;;2.88;;
73747;SDS011;62056;52.130;5.428;2022-09-09T06:59:02;5.30;;;2.05;;
73747;SDS011;62056;52.130;5.428;2022-09-09T07:01:32;5.45;;;1.40;;
73747;SDS011;62056;52.130;5.428;2022-09-09T07:04:00;3.92;;;1.10;;
73747;SDS011;62056;52.130;5.428;2022-09-09T07:06:32;4.07;;;1.50;;
73747;SDS011;62056;52.130;5.428;2022-09-09T07:09:02;4.03;;;1.08;;
73747;SDS011;62056;52.130;5.428;2022-09-09T07:11:31;4.55;;;1.30;;
73747;SDS011;62056;52.130;5.428;2022-09-09T07:14:00;3.47;;;0.98;;
73747;SDS011;62056;52.130;5.428;2022-09-09T07:16:27;3.10;;;1.10;;
73747;SDS011;62056;52.130;5.428;2022-09-09T07:18:55;4.07;;;1.48;;
73747;SDS011;62056;52.130;5.428;2022-09-09T07:21:27;4.37;;;1.40;;
73747;SDS011;62056;52.130;5.428;2022-09-09T07:23:55;9.05;;;1.30;;
73747;SDS011;62056;52.130;5.428;2022-09-09T07:26:23;5.32;;;1.20;;
73747;SDS011;62056;52.130;5.428;2022-09-09T07:28:52;4.53;;;1.38;;
73747;SDS011;62056;52.130;5.428;2022-09-09T07:31:21;11.82;;;1.77;;
73747;SDS011;62056;52.130;5.428;2022-09-09T07:33:51;4.43;;;1.40;;
73747;SDS011;62056;52.130;5.428;2022-09-09T07:36:20;3.53;;;1.05;;
73747;SDS011;62056;52.130;5.428;2022-09-09T07:38:49;6.65;;;1.50;;
73747;SDS011;62056;52.130;5.428;2022-09-09T07:41:20;3.75;;;1.15;;
73747;SDS011;62056;52.130;5.428;2022-09-09T07:43:49;3.17;;;1.15;;
73747;SDS011;62056;52.130;5.428;2022-09-09T07:46:18;5.28;;;1.48;;
73747;SDS011;62056;52.130;5.428;2022-09-09T07:48:52;3.72;;;1.50;;
73747;SDS011;62056;52.130;5.428;2022-09-09T07:51:26;16.20;;;1.65;;
73747;SDS011;62056;52.130;5.428;2022-09-09T07:53:56;5.30;;;1.40;;
73747;SDS011;62056;52.130;5.428;2022-09-09T07:56:26;3.97;;;1.33;;
73747;SDS011;62056;52.130;5.428;2022-09-09T07:58:54;7.93;;;1.88;;
73747;SDS011;62056;52.130;5.428;2022-09-09T08:01:24;7.45;;;1.55;;
73747;SDS011;62056;52.130;5.428;2022-09-09T08:03:57;6.93;;;1.42;;
73747;SDS011;62056;52.130;5.428;2022-09-09T08:06:28;6.28;;;1.70;;
73747;SDS011;62056;52.130;5.428;2022-09-09T08:08:59;7.65;;;1.33;;
73747;SDS011;62056;52.130;5.428;2022-09-09T08:11:28;3.42;;;0.98;;
73747;SDS011;62056;52.130;5.428;2022-09-09T08:14:00;2.30;;;0.90;;
73747;SDS011;62056;52.130;5.428;2022-09-09T08:16:29;2.38;;;0.93;;
73747;SDS011;62056;52.130;5.428;2022-09-09T08:18:58;3.28;;;1.30;;
73747;SDS011;62056;52.130;5.428;2022-09-09T08:21:26;7.15;;;2.13;;
73747;SDS011;62056;52.130;5.428;2022-09-09T08:23:55;5.38;;;1.20;;
73747;SDS011;62056;52.130;5.428;2022-09-09T08:26:28;5.55;;;1.65;;
73747;SDS011;62056;52.130;5.428;2022-09-09T08:28:57;2.80;;;1.30;;
73747;SDS011;62056;52.130;5.428;2022-09-09T08:31:30;4.20;;;1.27;;
73747;SDS011;62056;52.130;5.428;2022-09-09T08:33:59;4.20;;;1.13;;
73747;SDS011;62056;52.130;5.428;2022-09-09T08:36:30;4.53;;;1.23;;
73747;SDS011;62056;52.130;5.428;2022-09-09T08:39:00;9.65;;;0.85;;
73747;SDS011;62056;52.130;5.428;2022-09-09T08:44:08;6.18;;;1.33;;
73747;SDS011;62056;52.130;5.428;2022-09-09T08:46:46;3.53;;;1.00;;
73747;SDS011;62056;52.130;5.428;2022-09-09T08:52:00;4.90;;;1.63;;
73747;SDS011;62056;52.130;5.428;2022-09-09T08:54:29;4.55;;;1.73;;
73747;SDS011;62056;52.130;5.428;2022-09-09T08:57:25;4.43;;;1.58;;
73747;SDS011;62056;52.130;5.428;2022-09-09T08:59:57;7.95;;;2.58;;
73747;SDS011;62056;52.130;5.428;2022-09-09T09:02:33;3.65;;;1.70;;
73747;SDS011;62056;52.130;5.428;2022-09-09T09:07:53;7.68;;;1.40;;
73747;SDS011;62056;52.130;5.428;2022-09-09T09:10:38;8.45;;;1.10;;
73747;SDS011;62056;52.130;5.428;2022-09-09T09:13:20;3.83;;;1.30;;
73747;SDS011;62056;52.130;5.428;2022-09-09T09:16:02;6.95;;;1.25;;
73747;SDS011;62056;52.130;5.428;2022-09-09T09:18:41;5.05;;;1.88;;
73747;SDS011;62056;52.130;5.428;2022-09-09T09:23:54;11.63;;;1.52;;
73747;SDS011;62056;52.130;5.428;2022-09-09T09:26:23;6.60;;;1.15;;
73747;SDS011;62056;52.130;5.428;2022-09-09T09:28:55;6.80;;;2.03;;
73747;SDS011;62056;52.130;5.428;2022-09-09T09:31:23;5.80;;;1.98;;
73747;SDS011;62056;52.130;5.428;2022-09-09T09:33:53;9.38;;;2.80;;
73747;SDS011;62056;52.130;5.428;2022-09-09T09:36:25;10.90;;;2.20;;
73747;SDS011;62056;52.130;5.428;2022-09-09T09:39:04;5.10;;;1.80;;
73747;SDS011;62056;52.130;5.428;2022-09-09T09:41:51;6.37;;;3.03;;
73747;SDS011;62056;52.130;5.428;2022-09-09T09:46:52;6.55;;;2.60;;
73747;SDS011;62056;52.130;5.428;2022-09-09T09:49:19;5.00;;;2.88;;
73747;SDS011;62056;52.130;5.428;2022-09-09T09:51:46;4.10;;;2.13;;
73747;SDS011;62056;52.130;5.428;2022-09-09T09:54:14;5.03;;;2.75;;
73747;SDS011;62056;52.130;5.428;2022-09-09T09:56:43;4.85;;;2.35;;
73747;SDS011;62056;52.130;5.428;2022-09-09T10:02:06;8.65;;;2.53;;
73747;SDS011;62056;52.130;5.428;2022-09-09T10:04:39;6.07;;;2.05;;
73747;SDS011;62056;52.130;5.428;2022-09-09T10:07:11;4.95;;;2.15;;
73747;SDS011;62056;52.130;5.428;2022-09-09T10:09:43;6.32;;;2.20;;
73747;SDS011;62056;52.130;5.428;2022-09-09T10:18:15;6.63;;;2.55;;
73747;SDS011;62056;52.130;5.428;2022-09-09T10:26:15;6.20;;;2.55;;
73747;SDS011;62056;52.130;5.428;2022-09-09T10:36:56;9.85;;;2.65;;
73747;SDS011;62056;52.130;5.428;2022-09-09T10:44:36;4.82;;;1.30;;
73747;SDS011;62056;52.130;5.428;2022-09-09T10:47:26;3.00;;;1.23;;
73747;SDS011;62056;52.130;5.428;2022-09-09T10:53:35;3.85;;;1.38;;
73747;SDS011;62056;52.130;5.428;2022-09-09T10:56:07;2.45;;;1.30;;
73747;SDS011;62056;52.130;5.428;2022-09-09T10:58:43;4.50;;;1.50;;
73747;SDS011;62056;52.130;5.428;2022-09-09T11:01:23;2.60;;;1.05;;
73747;SDS011;62056;52.130;5.428;2022-09-09T11:04:10;4.85;;;1.63;;
73747;SDS011;62056;52.130;5.428;2022-09-09T11:06:52;2.42;;;1.20;;
73747;SDS011;62056;52.130;5.428;2022-09-09T11:09:26;3.80;;;1.40;;
73747;SDS011;62056;52.130;5.428;2022-09-09T11:11:57;4.88;;;1.20;;
73747;SDS011;62056;52.130;5.428;2022-09-09T11:14:40;4.05;;;1.50;;
73747;SDS011;62056;52.130;5.428;2022-09-09T11:17:13;7.10;;;1.70;;
73747;SDS011;62056;52.130;5.428;2022-09-09T11:19:43;3.03;;;1.05;;
73747;SDS011;62056;52.130;5.428;2022-09-09T11:22:15;4.18;;;1.45;;
73747;SDS011;62056;52.130;5.428;2022-09-09T11:30:50;5.22;;;1.52;;
73747;SDS011;62056;52.130;5.428;2022-09-09T11:33:33;6.22;;;1.45;;
73747;SDS011;62056;52.130;5.428;2022-09-09T11:44:39;4.57;;;1.08;;
73747;SDS011;62056;52.130;5.428;2022-09-09T11:47:26;7.93;;;1.33;;
73747;SDS011;62056;52.130;5.428;2022-09-09T11:50:07;6.03;;;1.10;;
73747;SDS011;62056;52.130;5.428;2022-09-09T11:52:38;3.10;;;1.08;;
73747;SDS011;62056;52.130;5.428;2022-09-09T11:55:09;3.78;;;1.02;;
73747;SDS011;62056;52.130;5.428;2022-09-09T11:57:38;3.33;;;1.27;;
73747;SDS011;62056;52.130;5.428;2022-09-09T12:00:06;5.32;;;1.10;;
73747;SDS011;62056;52.130;5.428;2022-09-09T12:02:33;6.40;;;2.40;;
73747;SDS011;62056;52.130;5.428;2022-09-09T12:07:52;4.93;;;1.10;;
73747;SDS011;62056;52.130;5.428;2022-09-09T12:15:57;4.80;;;1.25;;
73747;SDS011;62056;52.130;5.428;2022-09-09T12:18:46;2.17;;;0.90;;
73747;SDS011;62056;52.130;5.428;2022-09-09T12:21:21;4.05;;;1.27;;
73747;SDS011;62056;52.130;5.428;2022-09-09T12:24:11;4.97;;;1.08;;
73747;SDS011;62056;52.130;5.428;2022-09-09T12:26:57;5.00;;;1.27;;
73747;SDS011;62056;52.130;5.428;2022-09-09T12:29:51;3.50;;;1.73;;
73747;SDS011;62056;52.130;5.428;2022-09-09T12:32:25;3.08;;;1.05;;
73747;SDS011;62056;52.130;5.428;2022-09-09T12:34:58;3.72;;;1.10;;
73747;SDS011;62056;52.130;5.428;2022-09-09T12:37:29;4.00;;;1.00;;
73747;SDS011;62056;52.130;5.428;2022-09-09T12:40:05;5.28;;;0.98;;
73747;SDS011;62056;52.130;5.428;2022-09-09T12:42:44;2.08;;;0.90;;
73747;SDS011;62056;52.130;5.428;2022-09-09T12:45:15;1.73;;;1.02;;
73747;SDS011;62056;52.130;5.428;2022-09-09T12:47:49;4.18;;;2.35;;
73747;SDS011;62056;52.130;5.428;2022-09-09T12:50:28;4.10;;;1.30;;
73747;SDS011;62056;52.130;5.428;2022-09-09T12:52:58;6.30;;;1.30;;
73747;SDS011;62056;52.130;5.428;2022-09-09T12:55:28;3.38;;;1.10;;
73747;SDS011;62056;52.130;5.428;2022-09-09T12:58:00;2.55;;;1.23;;
73747;SDS011;62056;52.130;5.428;2022-09-09T13:00:30;2.08;;;0.82;;
73747;SDS011;62056;52.130;5.428;2022-09-09T13:02:58;3.67;;;1.10;;
73747;SDS011;62056;52.130;5.428;2022-09-09T13:05:38;3.97;;;1.10;;
73747;SDS011;62056;52.130;5.428;2022-09-09T13:08:06;3.28;;;1.00;;
73747;SDS011;62056;52.130;5.428;2022-09-09T13:10:39;2.80;;;0.98;;
73747;SDS011;62056;52.130;5.428;2022-09-09T13:13:21;3.42;;;0.80;;
73747;SDS011;62056;52.130;5.428;2022-09-09T13:15:51;2.38;;;0.98;;
73747;SDS011;62056;52.130;5.428;2022-09-09T13:18:21;3.75;;;1.10;;
73747;SDS011;62056;52.130;5.428;2022-09-09T13:20:50;3.40;;;1.15;;
73747;SDS011;62056;52.130;5.428;2022-09-09T13:23:18;1.83;;;1.13;;
73747;SDS011;62056;52.130;5.428;2022-09-09T13:25:53;3.47;;;1.05;;
73747;SDS011;62056;52.130;5.428;2022-09-09T13:28:27;2.73;;;1.40;;
73747;SDS011;62056;52.130;5.428;2022-09-09T13:31:00;2.83;;;0.90;;
73747;SDS011;62056;52.130;5.428;2022-09-09T13:33:38;4.00;;;1.20;;
73747;SDS011;62056;52.130;5.428;2022-09-09T13:36:09;2.65;;;0.93;;
73747;SDS011;62056;52.130;5.428;2022-09-09T13:38:52;5.22;;;1.33;;
73747;SDS011;62056;52.130;5.428;2022-09-09T13:41:22;2.47;;;0.90;;
73747;SDS011;62056;52.130;5.428;2022-09-09T13:43:51;5.90;;;1.38;;
73747;SDS011;62056;52.130;5.428;2022-09-09T13:46:39;3.22;;;1.27;;
73747;SDS011;62056;52.130;5.428;2022-09-09T13:51:41;2.25;;;1.10;;
73747;SDS011;62056;52.130;5.428;2022-09-09T13:54:14;4.87;;;1.27;;
73747;SDS011;62056;52.130;5.428;2022-09-09T13:56:42;2.20;;;1.02;;
73747;SDS011;62056;52.130;5.428;2022-09-09T13:59:12;3.28;;;1.05;;
73747;SDS011;62056;52.130;5.428;2022-09-09T14:01:40;2.03;;;1.02;;
73747;SDS011;62056;52.130;5.428;2022-09-09T14:04:08;4.10;;;1.73;;
73747;SDS011;62056;52.130;5.428;2022-09-09T14:06:39;4.03;;;1.40;;
73747;SDS011;62056;52.130;5.428;2022-09-09T14:09:07;2.75;;;1.23;;
73747;SDS011;62056;52.130;5.428;2022-09-09T14:11:36;2.67;;;1.10;;
73747;SDS011;62056;52.130;5.428;2022-09-09T14:14:02;6.20;;;1.10;;
73747;SDS011;62056;52.130;5.428;2022-09-09T14:16:29;3.80;;;1.20;;
73747;SDS011;62056;52.130;5.428;2022-09-09T14:18:56;2.70;;;1.50;;
73747;SDS011;62056;52.130;5.428;2022-09-09T14:21:23;2.75;;;1.20;;
73747;SDS011;62056;52.130;5.428;2022-09-09T14:23:50;3.05;;;1.75;;
73747;SDS011;62056;52.130;5.428;2022-09-09T14:26:19;6.72;;;1.70;;
73747;SDS011;62056;52.130;5.428;2022-09-09T14:28:47;3.03;;;1.48;;
73747;SDS011;62056;52.130;5.428;2022-09-09T14:31:21;5.10;;;2.27;;
73747;SDS011;62056;52.130;5.428;2022-09-09T14:33:51;3.47;;;1.52;;
73747;SDS011;62056;52.130;5.428;2022-09-09T14:36:18;4.15;;;1.40;;
73747;SDS011;62056;52.130;5.428;2022-09-09T14:38:45;4.75;;;1.40;;
73747;SDS011;62056;52.130;5.428;2022-09-09T14:41:13;3.00;;;1.23;;
73747;SDS011;62056;52.130;5.428;2022-09-09T14:43:43;3.73;;;1.40;;
73747;SDS011;62056;52.130;5.428;2022-09-09T14:46:11;2.53;;;0.90;;
73747;SDS011;62056;52.130;5.428;2022-09-09T14:48:40;4.80;;;2.00;;
73747;SDS011;62056;52.130;5.428;2022-09-09T14:51:08;5.00;;;1.90;;
73747;SDS011;62056;52.130;5.428;2022-09-09T14:53:36;4.47;;;2.05;;
73747;SDS011;62056;52.130;5.428;2022-09-09T14:56:06;4.17;;;1.97;;
73747;SDS011;62056;52.130;5.428;2022-09-09T14:58:39;5.63;;;2.17;;
73747;SDS011;62056;52.130;5.428;2022-09-09T15:01:06;2.40;;;1.40;;
73747;SDS011;62056;52.130;5.428;2022-09-09T15:03:37;2.35;;;1.50;;
73747;SDS011;62056;52.130;5.428;2022-09-09T15:06:09;3.35;;;1.52;;
73747;SDS011;62056;52.130;5.428;2022-09-09T15:08:42;1.85;;;1.60;;
73747;SDS011;62056;52.130;5.428;2022-09-09T15:11:11;3.25;;;1.70;;
73747;SDS011;62056;52.130;5.428;2022-09-09T15:13:39;4.13;;;2.40;;
73747;SDS011;62056;52.130;5.428;2022-09-09T15:16:08;3.58;;;1.67;;
73747;SDS011;62056;52.130;5.428;2022-09-09T15:18:37;4.30;;;1.58;;
73747;SDS011;62056;52.130;5.428;2022-09-09T15:21:11;2.83;;;1.15;;
73747;SDS011;62056;52.130;5.428;2022-09-09T15:23:39;2.90;;;1.25;;
73747;SDS011;62056;52.130;5.428;2022-09-09T15:26:05;1.48;;;1.02;;
73747;SDS011;62056;52.130;5.428;2022-09-09T15:28:33;2.63;;;1.00;;
73747;SDS011;62056;52.130;5.428;2022-09-09T15:31:05;3.85;;;1.23;;
73747;SDS011;62056;52.130;5.428;2022-09-09T15:33:33;2.67;;;1.00;;
73747;SDS011;62056;52.130;5.428;2022-09-09T15:36:14;3.15;;;1.10;;
73747;SDS011;62056;52.130;5.428;2022-09-09T15:38:49;1.80;;;0.70;;
73747;SDS011;62056;52.130;5.428;2022-09-09T15:41:17;2.67;;;1.13;;
73747;SDS011;62056;52.130;5.428;2022-09-09T15:43:46;1.27;;;0.80;;
73747;SDS011;62056;52.130;5.428;2022-09-09T15:49:23;2.38;;;0.98;;
73747;SDS011;62056;52.130;5.428;2022-09-09T15:51:53;1.60;;;0.80;;
73747;SDS011;62056;52.130;5.428;2022-09-09T15:54:25;1.87;;;0.90;;
73747;SDS011;62056;52.130;5.428;2022-09-09T15:56:54;2.65;;;0.95;;
73747;SDS011;62056;52.130;5.428;2022-09-09T15:59:23;2.30;;;1.10;;
73747;SDS011;62056;52.130;5.428;2022-09-09T16:01:50;1.20;;;0.80;;
73747;SDS011;62056;52.130;5.428;2022-09-09T16:04:18;4.32;;;1.10;;
73747;SDS011;62056;52.130;5.428;2022-09-09T16:06:53;3.90;;;0.87;;
73747;SDS011;62056;52.130;5.428;2022-09-09T16:09:21;1.48;;;0.80;;
73747;SDS011;62056;52.130;5.428;2022-09-09T16:11:48;2.50;;;1.23;;
73747;SDS011;62056;52.130;5.428;2022-09-09T16:14:18;1.38;;;0.90;;
73747;SDS011;62056;52.130;5.428;2022-09-09T16:16:45;1.90;;;1.10;;
73747;SDS011;62056;52.130;5.428;2022-09-09T16:19:12;1.73;;;0.73;;
73747;SDS011;62056;52.130;5.428;2022-09-09T16:21:40;3.35;;;1.13;;
73747;SDS011;62056;52.130;5.428;2022-09-09T16:24:09;2.90;;;1.00;;
73747;SDS011;62056;52.130;5.428;2022-09-09T16:26:38;2.90;;;0.60;;
73747;SDS011;62056;52.130;5.428;2022-09-09T16:29:07;2.70;;;1.15;;
73747;SDS011;62056;52.130;5.428;2022-09-09T16:31:35;1.70;;;1.13;;
73747;SDS011;62056;52.130;5.428;2022-09-09T16:34:02;2.75;;;0.90;;
73747;SDS011;62056;52.130;5.428;2022-09-09T16:36:30;1.77;;;0.70;;
73747;SDS011;62056;52.130;5.428;2022-09-09T16:39:02;2.08;;;1.05;;
73747;SDS011;62056;52.130;5.428;2022-09-09T16:41:32;4.82;;;1.05;;
73747;SDS011;62056;52.130;5.428;2022-09-09T16:44:01;2.07;;;0.70;;
73747;SDS011;62056;52.130;5.428;2022-09-09T16:46:31;2.47;;;1.13;;
73747;SDS011;62056;52.130;5.428;2022-09-09T16:49:03;2.33;;;1.15;;
73747;SDS011;62056;52.130;5.428;2022-09-09T16:51:32;3.33;;;1.30;;